sensor_id;sensor_type;location;lat;lon;timestamp;temperature;humidity
16441;DHT22;8330;-33.858;151.184;2022-08-01T00:02:21;16.50;99.90
16441;DHT22;8330;-33.858;151.184;2022-08-01T00:04:54;16.60;99.90
16441;DHT22;8330;-33.858;151.184;2022-08-01T00:07:25;16.70;99.90
16441;DHT22;8330;-33.858;151.184;2022-08-01T00:09:56;16.80;99.90
16441;DHT22;8330;-33.858;151.184;2022-08-01T00:12:27;16.90;99.90
16441;DHT22;8330;-33.858;151.184;2022-08-01T00:14:57;17.00;99.90
16441;DHT22;8330;-33.858;151.184;2022-08-01T00:17:30;17.20;99.90
16441;DHT22;8330;-33.858;151.184;2022-08-01T00:20:01;17.30;99.90
16441;DHT22;8330;-33.858;151.184;2022-08-01T00:22:32;17.50;99.90
16441;DHT22;8330;-33.858;151.184;2022-08-01T00:25:04;17.50;99.90
16441;DHT22;8330;-33.858;151.184;2022-08-01T00:27:35;17.60;99.90
16441;DHT22;8330;-33.858;151.184;2022-08-01T00:30:06;17.70;99.90
16441;DHT22;8330;-33.858;151.184;2022-08-01T00:32:40;17.80;99.90
16441;DHT22;8330;-33.858;151.184;2022-08-01T00:35:11;17.90;99.90
16441;DHT22;8330;-33.858;151.184;2022-08-01T00:37:41;17.90;99.90
16441;DHT22;8330;-33.858;151.184;2022-08-01T00:40:12;18.00;99.90
16441;DHT22;8330;-33.858;151.184;2022-08-01T00:42:43;18.10;99.90
16441;DHT22;8330;-33.858;151.184;2022-08-01T00:45:14;18.10;99.90
16441;DHT22;8330;-33.858;151.184;2022-08-01T00:47:48;18.20;99.90
16441;DHT22;8330;-33.858;151.184;2022-08-01T00:50:18;18.40;99.90
16441;DHT22;8330;-33.858;151.184;2022-08-01T00:52:50;18.50;99.90
16441;DHT22;8330;-33.858;151.184;2022-08-01T00:55:20;18.60;99.90
16441;DHT22;8330;-33.858;151.184;2022-08-01T00:57:51;18.60;99.90
16441;DHT22;8330;-33.858;151.184;2022-08-01T01:00:23;18.70;99.90
16441;DHT22;8330;-33.858;151.184;2022-08-01T01:02:56;18.80;99.90
16441;DHT22;8330;-33.858;151.184;2022-08-01T01:05:27;18.90;99.90
16441;DHT22;8330;-33.858;151.184;2022-08-01T01:08:02;19.00;99.90
16441;DHT22;8330;-33.858;151.184;2022-08-01T01:10:38;19.00;99.90
16441;DHT22;8330;-33.858;151.184;2022-08-01T01:13:15;19.00;99.90
16441;DHT22;8330;-33.858;151.184;2022-08-01T01:15:49;19.10;99.90
16441;DHT22;8330;-33.858;151.184;2022-08-01T01:18:27;19.10;99.90
16441;DHT22;8330;-33.858;151.184;2022-08-01T01:21:07;19.10;99.90
16441;DHT22;8330;-33.858;151.184;2022-08-01T01:23:50;19.20;99.90
16441;DHT22;8330;-33.858;151.184;2022-08-01T01:26:36;19.30;99.90
16441;DHT22;8330;-33.858;151.184;2022-08-01T01:29:15;19.40;99.90
16441;DHT22;8330;-33.858;151.184;2022-08-01T01:31:49;19.40;99.90
16441;DHT22;8330;-33.858;151.184;2022-08-01T01:34:22;19.50;99.90
16441;DHT22;8330;-33.858;151.184;2022-08-01T01:36:56;19.60;99.90
16441;DHT22;8330;-33.858;151.184;2022-08-01T01:39:30;19.60;99.90
16441;DHT22;8330;-33.858;151.184;2022-08-01T01:42:02;19.70;99.90
16441;DHT22;8330;-33.858;151.184;2022-08-01T01:44:37;19.70;99.90
16441;DHT22;8330;-33.858;151.184;2022-08-01T01:47:08;19.70;99.90
16441;DHT22;8330;-33.858;151.184;2022-08-01T01:49:40;19.80;99.90
16441;DHT22;8330;-33.858;151.184;2022-08-01T01:52:13;19.90;99.90
16441;DHT22;8330;-33.858;151.184;2022-08-01T01:54:48;19.90;99.90
16441;DHT22;8330;-33.858;151.184;2022-08-01T01:57:21;20.00;99.90
16441;DHT22;8330;-33.858;151.184;2022-08-01T01:59:55;20.10;99.90
16441;DHT22;8330;-33.858;151.184;2022-08-01T02:02:26;20.00;99.90
16441;DHT22;8330;-33.858;151.184;2022-08-01T02:04:58;20.10;99.90
16441;DHT22;8330;-33.858;151.184;2022-08-01T02:07:31;19.90;99.90
16441;DHT22;8330;-33.858;151.184;2022-08-01T02:10:03;19.80;99.90
16441;DHT22;8330;-33.858;151.184;2022-08-01T02:12:37;19.90;99.90
16441;DHT22;8330;-33.858;151.184;2022-08-01T02:15:13;19.90;99.90
16441;DHT22;8330;-33.858;151.184;2022-08-01T02:17:47;19.90;99.90
16441;DHT22;8330;-33.858;151.184;2022-08-01T02:20:19;19.80;99.90
16441;DHT22;8330;-33.858;151.184;2022-08-01T02:22:50;19.70;99.90
16441;DHT22;8330;-33.858;151.184;2022-08-01T02:25:25;19.60;99.90
16441;DHT22;8330;-33.858;151.184;2022-08-01T02:28:03;19.40;99.90
16441;DHT22;8330;-33.858;151.184;2022-08-01T02:30:39;19.40;99.90
16441;DHT22;8330;-33.858;151.184;2022-08-01T02:33:17;19.30;99.90
16441;DHT22;8330;-33.858;151.184;2022-08-01T02:35:50;19.30;99.90
16441;DHT22;8330;-33.858;151.184;2022-08-01T02:38:23;19.40;99.90
16441;DHT22;8330;-33.858;151.184;2022-08-01T02:40:56;19.60;99.90
16441;DHT22;8330;-33.858;151.184;2022-08-01T02:43:29;19.70;99.90
16441;DHT22;8330;-33.858;151.184;2022-08-01T02:46:04;19.70;99.90
16441;DHT22;8330;-33.858;151.184;2022-08-01T02:48:37;19.80;99.90
16441;DHT22;8330;-33.858;151.184;2022-08-01T02:51:09;20.00;99.90
16441;DHT22;8330;-33.858;151.184;2022-08-01T02:53:42;20.10;99.90
16441;DHT22;8330;-33.858;151.184;2022-08-01T02:56:14;20.30;99.90
16441;DHT22;8330;-33.858;151.184;2022-08-01T02:58:46;20.40;99.90
16441;DHT22;8330;-33.858;151.184;2022-08-01T03:01:21;20.50;99.90
16441;DHT22;8330;-33.858;151.184;2022-08-01T03:03:52;20.50;99.90
16441;DHT22;8330;-33.858;151.184;2022-08-01T03:06:23;20.50;99.90
16441;DHT22;8330;-33.858;151.184;2022-08-01T03:08:56;20.50;99.90
16441;DHT22;8330;-33.858;151.184;2022-08-01T03:11:28;20.60;99.90
16441;DHT22;8330;-33.858;151.184;2022-08-01T03:14:02;20.70;99.90
16441;DHT22;8330;-33.858;151.184;2022-08-01T03:16:36;20.80;99.90
16441;DHT22;8330;-33.858;151.184;2022-08-01T03:19:09;20.80;99.90
16441;DHT22;8330;-33.858;151.184;2022-08-01T03:21:42;20.90;99.90
16441;DHT22;8330;-33.858;151.184;2022-08-01T03:24:14;21.00;99.90
16441;DHT22;8330;-33.858;151.184;2022-08-01T03:26:46;20.80;99.90
16441;DHT22;8330;-33.858;151.184;2022-08-01T03:29:19;20.90;99.90
16441;DHT22;8330;-33.858;151.184;2022-08-01T03:31:54;20.90;99.90
16441;DHT22;8330;-33.858;151.184;2022-08-01T03:34:25;21.10;99.90
16441;DHT22;8330;-33.858;151.184;2022-08-01T03:37:03;21.00;99.90
16441;DHT22;8330;-33.858;151.184;2022-08-01T03:39:42;20.80;98.50
16441;DHT22;8330;-33.858;151.184;2022-08-01T03:42:17;20.60;98.80
16441;DHT22;8330;-33.858;151.184;2022-08-01T03:44:54;20.40;99.60
16441;DHT22;8330;-33.858;151.184;2022-08-01T03:47:33;20.40;99.20
16441;DHT22;8330;-33.858;151.184;2022-08-01T03:50:07;20.50;98.70
16441;DHT22;8330;-33.858;151.184;2022-08-01T03:52:43;20.50;99.10
16441;DHT22;8330;-33.858;151.184;2022-08-01T03:55:16;20.60;96.60
16441;DHT22;8330;-33.858;151.184;2022-08-01T03:57:49;20.50;96.40
16441;DHT22;8330;-33.858;151.184;2022-08-01T04:00:20;20.50;95.80
16441;DHT22;8330;-33.858;151.184;2022-08-01T04:02:54;20.60;95.80
16441;DHT22;8330;-33.858;151.184;2022-08-01T04:05:25;20.70;94.30
16441;DHT22;8330;-33.858;151.184;2022-08-01T04:07:56;20.80;93.80
16441;DHT22;8330;-33.858;151.184;2022-08-01T04:10:29;20.80;91.20
16441;DHT22;8330;-33.858;151.184;2022-08-01T04:13:00;20.90;84.30
16441;DHT22;8330;-33.858;151.184;2022-08-01T04:15:31;21.00;86.60
16441;DHT22;8330;-33.858;151.184;2022-08-01T04:18:04;20.90;83.70
16441;DHT22;8330;-33.858;151.184;2022-08-01T04:20:34;21.00;81.60
16441;DHT22;8330;-33.858;151.184;2022-08-01T04:23:05;21.00;82.00
16441;DHT22;8330;-33.858;151.184;2022-08-01T04:25:38;21.00;82.20
16441;DHT22;8330;-33.858;151.184;2022-08-01T04:28:12;20.90;77.80
16441;DHT22;8330;-33.858;151.184;2022-08-01T04:30:45;20.90;79.00
16441;DHT22;8330;-33.858;151.184;2022-08-01T04:33:18;20.80;76.60
16441;DHT22;8330;-33.858;151.184;2022-08-01T04:35:50;20.80;76.00
16441;DHT22;8330;-33.858;151.184;2022-08-01T04:38:22;20.70;76.50
16441;DHT22;8330;-33.858;151.184;2022-08-01T04:40:55;20.70;74.50
16441;DHT22;8330;-33.858;151.184;2022-08-01T04:43:26;20.70;73.70
16441;DHT22;8330;-33.858;151.184;2022-08-01T04:45:58;20.70;74.80
16441;DHT22;8330;-33.858;151.184;2022-08-01T04:48:34;20.70;75.00
16441;DHT22;8330;-33.858;151.184;2022-08-01T04:51:12;20.70;75.80
16441;DHT22;8330;-33.858;151.184;2022-08-01T04:53:45;20.70;74.90
16441;DHT22;8330;-33.858;151.184;2022-08-01T04:56:18;20.70;71.80
16441;DHT22;8330;-33.858;151.184;2022-08-01T04:58:49;20.70;67.10
16441;DHT22;8330;-33.858;151.184;2022-08-01T05:01:40;20.70;70.10
16441;DHT22;8330;-33.858;151.184;2022-08-01T05:04:13;20.60;65.00
16441;DHT22;8330;-33.858;151.184;2022-08-01T05:06:43;20.50;62.80
16441;DHT22;8330;-33.858;151.184;2022-08-01T05:09:14;20.60;63.90
16441;DHT22;8330;-33.858;151.184;2022-08-01T05:11:45;20.60;62.50
16441;DHT22;8330;-33.858;151.184;2022-08-01T05:14:16;20.50;63.30
16441;DHT22;8330;-33.858;151.184;2022-08-01T05:16:47;20.60;65.20
16441;DHT22;8330;-33.858;151.184;2022-08-01T05:19:20;20.50;65.00
16441;DHT22;8330;-33.858;151.184;2022-08-01T05:21:50;20.50;66.10
16441;DHT22;8330;-33.858;151.184;2022-08-01T05:24:21;20.60;67.50
16441;DHT22;8330;-33.858;151.184;2022-08-01T05:26:52;20.60;66.20
16441;DHT22;8330;-33.858;151.184;2022-08-01T05:29:23;20.60;64.40
16441;DHT22;8330;-33.858;151.184;2022-08-01T05:31:54;20.60;62.20
16441;DHT22;8330;-33.858;151.184;2022-08-01T05:34:27;20.60;61.60
16441;DHT22;8330;-33.858;151.184;2022-08-01T05:36:58;20.60;59.80
16441;DHT22;8330;-33.858;151.184;2022-08-01T05:39:28;20.50;59.20
16441;DHT22;8330;-33.858;151.184;2022-08-01T05:41:59;20.50;60.50
16441;DHT22;8330;-33.858;151.184;2022-08-01T05:44:30;20.50;60.40
16441;DHT22;8330;-33.858;151.184;2022-08-01T05:47:01;20.50;60.80
16441;DHT22;8330;-33.858;151.184;2022-08-01T05:49:34;20.50;59.30
16441;DHT22;8330;-33.858;151.184;2022-08-01T05:52:05;20.40;60.70
16441;DHT22;8330;-33.858;151.184;2022-08-01T05:54:36;20.30;61.00
16441;DHT22;8330;-33.858;151.184;2022-08-01T05:57:07;20.30;59.30
16441;DHT22;8330;-33.858;151.184;2022-08-01T05:59:37;20.30;58.90
16441;DHT22;8330;-33.858;151.184;2022-08-01T06:02:09;20.30;58.30
16441;DHT22;8330;-33.858;151.184;2022-08-01T06:04:41;20.30;59.30
16441;DHT22;8330;-33.858;151.184;2022-08-01T06:07:12;20.30;59.30
16441;DHT22;8330;-33.858;151.184;2022-08-01T06:09:43;20.30;58.80
16441;DHT22;8330;-33.858;151.184;2022-08-01T06:12:13;20.40;59.30
16441;DHT22;8330;-33.858;151.184;2022-08-01T06:14:45;20.30;59.70
16441;DHT22;8330;-33.858;151.184;2022-08-01T06:17:15;20.30;58.60
16441;DHT22;8330;-33.858;151.184;2022-08-01T06:19:48;20.30;58.90
16441;DHT22;8330;-33.858;151.184;2022-08-01T06:22:19;20.50;60.10
16441;DHT22;8330;-33.858;151.184;2022-08-01T06:24:49;20.40;58.40
16441;DHT22;8330;-33.858;151.184;2022-08-01T06:27:20;20.40;58.00
16441;DHT22;8330;-33.858;151.184;2022-08-01T06:29:52;20.40;59.30
16441;DHT22;8330;-33.858;151.184;2022-08-01T06:32:23;20.50;58.80
16441;DHT22;8330;-33.858;151.184;2022-08-01T06:34:59;20.60;58.30
16441;DHT22;8330;-33.858;151.184;2022-08-01T06:37:30;20.60;56.70
16441;DHT22;8330;-33.858;151.184;2022-08-01T06:40:03;20.60;57.70
16441;DHT22;8330;-33.858;151.184;2022-08-01T06:42:34;20.50;58.20
16441;DHT22;8330;-33.858;151.184;2022-08-01T06:45:07;20.30;55.80
16441;DHT22;8330;-33.858;151.184;2022-08-01T06:47:38;20.10;57.50
16441;DHT22;8330;-33.858;151.184;2022-08-01T06:50:12;20.00;57.90
16441;DHT22;8330;-33.858;151.184;2022-08-01T06:52:43;19.90;57.70
16441;DHT22;8330;-33.858;151.184;2022-08-01T06:55:14;19.70;57.70
16441;DHT22;8330;-33.858;151.184;2022-08-01T06:57:48;19.70;58.50
16441;DHT22;8330;-33.858;151.184;2022-08-01T07:00:20;19.60;57.80
16441;DHT22;8330;-33.858;151.184;2022-08-01T07:02:52;19.40;58.40
16441;DHT22;8330;-33.858;151.184;2022-08-01T07:05:25;19.40;58.10
16441;DHT22;8330;-33.858;151.184;2022-08-01T07:07:56;19.20;59.10
16441;DHT22;8330;-33.858;151.184;2022-08-01T07:10:26;19.20;59.50
16441;DHT22;8330;-33.858;151.184;2022-08-01T07:12:57;19.20;59.60
16441;DHT22;8330;-33.858;151.184;2022-08-01T07:15:28;19.10;60.90
16441;DHT22;8330;-33.858;151.184;2022-08-01T07:17:59;19.10;61.80
16441;DHT22;8330;-33.858;151.184;2022-08-01T07:20:34;19.00;62.80
16441;DHT22;8330;-33.858;151.184;2022-08-01T07:23:04;18.90;62.40
16441;DHT22;8330;-33.858;151.184;2022-08-01T07:25:35;18.90;64.10
16441;DHT22;8330;-33.858;151.184;2022-08-01T07:28:06;18.80;64.50
16441;DHT22;8330;-33.858;151.184;2022-08-01T07:30:37;18.70;65.70
16441;DHT22;8330;-33.858;151.184;2022-08-01T07:33:09;18.70;66.60
16441;DHT22;8330;-33.858;151.184;2022-08-01T07:35:42;18.70;66.60
16441;DHT22;8330;-33.858;151.184;2022-08-01T07:38:13;18.60;67.00
16441;DHT22;8330;-33.858;151.184;2022-08-01T07:40:44;18.50;67.50
16441;DHT22;8330;-33.858;151.184;2022-08-01T07:43:15;18.50;69.40
16441;DHT22;8330;-33.858;151.184;2022-08-01T07:45:46;18.50;70.60
16441;DHT22;8330;-33.858;151.184;2022-08-01T07:48:16;18.40;72.90
16441;DHT22;8330;-33.858;151.184;2022-08-01T07:50:50;18.30;74.30
16441;DHT22;8330;-33.858;151.184;2022-08-01T07:53:21;18.30;76.10
16441;DHT22;8330;-33.858;151.184;2022-08-01T07:55:52;18.20;75.40
16441;DHT22;8330;-33.858;151.184;2022-08-01T07:58:23;18.20;75.20
16441;DHT22;8330;-33.858;151.184;2022-08-01T08:00:55;18.10;75.40
16441;DHT22;8330;-33.858;151.184;2022-08-01T08:03:26;18.00;74.40
16441;DHT22;8330;-33.858;151.184;2022-08-01T08:05:58;18.00;73.60
16441;DHT22;8330;-33.858;151.184;2022-08-01T08:08:29;18.00;74.90
16441;DHT22;8330;-33.858;151.184;2022-08-01T08:11:02;17.90;74.70
16441;DHT22;8330;-33.858;151.184;2022-08-01T08:13:32;17.90;76.20
16441;DHT22;8330;-33.858;151.184;2022-08-01T08:16:03;17.90;77.00
16441;DHT22;8330;-33.858;151.184;2022-08-01T08:18:34;17.90;78.40
16441;DHT22;8330;-33.858;151.184;2022-08-01T08:21:07;17.80;79.50
16441;DHT22;8330;-33.858;151.184;2022-08-01T08:23:38;17.80;79.70
16441;DHT22;8330;-33.858;151.184;2022-08-01T08:26:25;17.80;79.20
16441;DHT22;8330;-33.858;151.184;2022-08-01T08:28:55;17.70;78.70
16441;DHT22;8330;-33.858;151.184;2022-08-01T08:31:26;17.60;79.60
16441;DHT22;8330;-33.858;151.184;2022-08-01T08:33:57;17.60;79.90
16441;DHT22;8330;-33.858;151.184;2022-08-01T08:36:30;17.50;80.70
16441;DHT22;8330;-33.858;151.184;2022-08-01T08:39:01;17.50;81.30
16441;DHT22;8330;-33.858;151.184;2022-08-01T08:41:32;17.50;81.00
16441;DHT22;8330;-33.858;151.184;2022-08-01T08:44:03;17.40;81.30
16441;DHT22;8330;-33.858;151.184;2022-08-01T08:46:34;17.40;82.20
16441;DHT22;8330;-33.858;151.184;2022-08-01T08:49:10;17.30;84.10
16441;DHT22;8330;-33.858;151.184;2022-08-01T08:51:43;17.30;85.70
16441;DHT22;8330;-33.858;151.184;2022-08-01T08:54:18;17.30;86.00
16441;DHT22;8330;-33.858;151.184;2022-08-01T08:56:50;17.30;86.60
16441;DHT22;8330;-33.858;151.184;2022-08-01T08:59:22;17.20;86.40
16441;DHT22;8330;-33.858;151.184;2022-08-01T09:01:54;17.20;87.90
16441;DHT22;8330;-33.858;151.184;2022-08-01T09:04:24;17.20;89.50
16441;DHT22;8330;-33.858;151.184;2022-08-01T09:06:57;17.20;89.10
16441;DHT22;8330;-33.858;151.184;2022-08-01T09:09:28;17.10;90.20
16441;DHT22;8330;-33.858;151.184;2022-08-01T09:11:58;17.10;90.60
16441;DHT22;8330;-33.858;151.184;2022-08-01T09:14:29;17.10;90.00
16441;DHT22;8330;-33.858;151.184;2022-08-01T09:17:04;17.00;90.40
16441;DHT22;8330;-33.858;151.184;2022-08-01T09:19:37;17.10;90.80
16441;DHT22;8330;-33.858;151.184;2022-08-01T09:22:11;17.10;90.30
16441;DHT22;8330;-33.858;151.184;2022-08-01T09:24:59;17.00;90.20
16441;DHT22;8330;-33.858;151.184;2022-08-01T09:27:30;17.00;90.20
16441;DHT22;8330;-33.858;151.184;2022-08-01T09:30:11;16.90;90.00
16441;DHT22;8330;-33.858;151.184;2022-08-01T09:32:56;16.90;90.10
16441;DHT22;8330;-33.858;151.184;2022-08-01T09:35:28;16.90;90.20
16441;DHT22;8330;-33.858;151.184;2022-08-01T09:38:17;16.90;90.50
16441;DHT22;8330;-33.858;151.184;2022-08-01T09:40:49;16.90;90.10
16441;DHT22;8330;-33.858;151.184;2022-08-01T09:43:21;16.80;89.80
16441;DHT22;8330;-33.858;151.184;2022-08-01T09:45:52;16.80;87.90
16441;DHT22;8330;-33.858;151.184;2022-08-01T09:48:23;16.80;88.80
16441;DHT22;8330;-33.858;151.184;2022-08-01T09:50:55;16.70;89.20
16441;DHT22;8330;-33.858;151.184;2022-08-01T09:53:28;16.70;90.10
16441;DHT22;8330;-33.858;151.184;2022-08-01T09:56:11;16.70;90.50
16441;DHT22;8330;-33.858;151.184;2022-08-01T09:58:55;16.70;91.10
16441;DHT22;8330;-33.858;151.184;2022-08-01T10:01:26;16.70;90.50
16441;DHT22;8330;-33.858;151.184;2022-08-01T10:04:10;16.70;90.80
16441;DHT22;8330;-33.858;151.184;2022-08-01T10:06:42;16.70;91.00
16441;DHT22;8330;-33.858;151.184;2022-08-01T10:09:16;16.70;90.30
16441;DHT22;8330;-33.858;151.184;2022-08-01T10:11:56;16.60;90.90
16441;DHT22;8330;-33.858;151.184;2022-08-01T10:14:29;16.50;90.50
16441;DHT22;8330;-33.858;151.184;2022-08-01T10:17:01;16.50;90.30
16441;DHT22;8330;-33.858;151.184;2022-08-01T10:19:32;16.50;90.60
16441;DHT22;8330;-33.858;151.184;2022-08-01T10:22:05;16.50;90.70
16441;DHT22;8330;-33.858;151.184;2022-08-01T10:24:40;16.50;90.30
16441;DHT22;8330;-33.858;151.184;2022-08-01T10:27:11;16.40;90.50
16441;DHT22;8330;-33.858;151.184;2022-08-01T10:29:45;16.40;90.40
16441;DHT22;8330;-33.858;151.184;2022-08-01T10:32:17;16.40;90.90
16441;DHT22;8330;-33.858;151.184;2022-08-01T10:34:49;16.30;90.80
16441;DHT22;8330;-33.858;151.184;2022-08-01T10:37:20;16.30;90.70
16441;DHT22;8330;-33.858;151.184;2022-08-01T10:39:54;16.20;90.70
16441;DHT22;8330;-33.858;151.184;2022-08-01T10:42:25;16.20;91.20
16441;DHT22;8330;-33.858;151.184;2022-08-01T10:44:56;16.10;90.90
16441;DHT22;8330;-33.858;151.184;2022-08-01T10:47:33;16.10;91.20
16441;DHT22;8330;-33.858;151.184;2022-08-01T10:50:15;16.10;91.00
16441;DHT22;8330;-33.858;151.184;2022-08-01T10:53:04;16.00;91.10
16441;DHT22;8330;-33.858;151.184;2022-08-01T10:55:49;16.00;91.60
16441;DHT22;8330;-33.858;151.184;2022-08-01T10:58:25;16.00;91.20
16441;DHT22;8330;-33.858;151.184;2022-08-01T11:01:14;16.00;91.20
16441;DHT22;8330;-33.858;151.184;2022-08-01T11:04:01;16.00;91.70
16441;DHT22;8330;-33.858;151.184;2022-08-01T11:06:50;16.00;92.20
16441;DHT22;8330;-33.858;151.184;2022-08-01T11:09:28;16.10;91.50
16441;DHT22;8330;-33.858;151.184;2022-08-01T11:12:06;16.00;92.20
16441;DHT22;8330;-33.858;151.184;2022-08-01T11:17:41;16.00;92.20
16441;DHT22;8330;-33.858;151.184;2022-08-01T11:20:15;15.90;93.50
16441;DHT22;8330;-33.858;151.184;2022-08-01T11:26:11;15.90;94.40
16441;DHT22;8330;-33.858;151.184;2022-08-01T11:28:46;15.80;94.10
16441;DHT22;8330;-33.858;151.184;2022-08-01T11:31:29;15.70;94.10
16441;DHT22;8330;-33.858;151.184;2022-08-01T11:34:00;15.60;94.70
16441;DHT22;8330;-33.858;151.184;2022-08-01T11:36:31;15.60;94.90
16441;DHT22;8330;-33.858;151.184;2022-08-01T11:39:16;15.50;95.20
16441;DHT22;8330;-33.858;151.184;2022-08-01T11:41:50;15.50;96.00
16441;DHT22;8330;-33.858;151.184;2022-08-01T11:44:25;15.50;97.10
16441;DHT22;8330;-33.858;151.184;2022-08-01T11:46:57;15.50;98.70
16441;DHT22;8330;-33.858;151.184;2022-08-01T11:49:48;15.50;99.90
16441;DHT22;8330;-33.858;151.184;2022-08-01T11:52:29;15.60;99.90
16441;DHT22;8330;-33.858;151.184;2022-08-01T11:55:07;15.50;99.90
16441;DHT22;8330;-33.858;151.184;2022-08-01T11:57:38;15.40;99.90
16441;DHT22;8330;-33.858;151.184;2022-08-01T12:00:15;15.30;99.90
16441;DHT22;8330;-33.858;151.184;2022-08-01T12:02:48;15.30;99.90
16441;DHT22;8330;-33.858;151.184;2022-08-01T12:05:26;15.30;99.90
16441;DHT22;8330;-33.858;151.184;2022-08-01T12:07:57;15.20;99.90
16441;DHT22;8330;-33.858;151.184;2022-08-01T12:10:29;15.20;99.90
16441;DHT22;8330;-33.858;151.184;2022-08-01T12:13:05;15.10;99.90
16441;DHT22;8330;-33.858;151.184;2022-08-01T12:15:39;15.00;99.90
16441;DHT22;8330;-33.858;151.184;2022-08-01T12:18:11;15.00;99.90
16441;DHT22;8330;-33.858;151.184;2022-08-01T12:20:43;15.00;99.90
16441;DHT22;8330;-33.858;151.184;2022-08-01T12:23:17;15.00;99.90
16441;DHT22;8330;-33.858;151.184;2022-08-01T12:25:52;15.10;99.90
16441;DHT22;8330;-33.858;151.184;2022-08-01T12:28:22;15.00;99.90
16441;DHT22;8330;-33.858;151.184;2022-08-01T12:30:55;15.00;99.90
16441;DHT22;8330;-33.858;151.184;2022-08-01T12:33:26;15.00;99.90
16441;DHT22;8330;-33.858;151.184;2022-08-01T12:35:57;15.00;99.90
16441;DHT22;8330;-33.858;151.184;2022-08-01T12:38:28;15.00;99.90
16441;DHT22;8330;-33.858;151.184;2022-08-01T12:41:00;14.90;99.90
16441;DHT22;8330;-33.858;151.184;2022-08-01T12:43:32;14.90;99.90
16441;DHT22;8330;-33.858;151.184;2022-08-01T12:46:05;14.90;99.90
16441;DHT22;8330;-33.858;151.184;2022-08-01T12:48:39;14.80;99.90
16441;DHT22;8330;-33.858;151.184;2022-08-01T12:51:10;14.80;99.90
16441;DHT22;8330;-33.858;151.184;2022-08-01T12:53:41;14.80;99.90
16441;DHT22;8330;-33.858;151.184;2022-08-01T12:56:11;14.70;99.90
16441;DHT22;8330;-33.858;151.184;2022-08-01T12:58:42;14.70;99.90
16441;DHT22;8330;-33.858;151.184;2022-08-01T13:01:15;14.70;99.90
16441;DHT22;8330;-33.858;151.184;2022-08-01T13:03:59;14.60;99.90
16441;DHT22;8330;-33.858;151.184;2022-08-01T13:06:31;14.60;99.90
16441;DHT22;8330;-33.858;151.184;2022-08-01T13:09:09;14.60;99.90
16441;DHT22;8330;-33.858;151.184;2022-08-01T13:11:41;14.50;99.90
16441;DHT22;8330;-33.858;151.184;2022-08-01T13:14:27;14.40;99.90
16441;DHT22;8330;-33.858;151.184;2022-08-01T13:17:01;14.30;99.90
16441;DHT22;8330;-33.858;151.184;2022-08-01T13:19:46;14.30;99.90
16441;DHT22;8330;-33.858;151.184;2022-08-01T13:22:17;14.30;99.90
16441;DHT22;8330;-33.858;151.184;2022-08-01T13:24:48;14.20;99.90
16441;DHT22;8330;-33.858;151.184;2022-08-01T13:27:22;14.20;99.90
16441;DHT22;8330;-33.858;151.184;2022-08-01T13:30:11;14.20;99.90
16441;DHT22;8330;-33.858;151.184;2022-08-01T13:32:56;14.20;99.90
16441;DHT22;8330;-33.858;151.184;2022-08-01T13:35:27;14.30;99.90
16441;DHT22;8330;-33.858;151.184;2022-08-01T13:37:58;14.30;99.90
16441;DHT22;8330;-33.858;151.184;2022-08-01T13:40:29;14.40;99.90
16441;DHT22;8330;-33.858;151.184;2022-08-01T13:43:00;14.40;99.90
16441;DHT22;8330;-33.858;151.184;2022-08-01T13:45:30;14.30;99.90
16441;DHT22;8330;-33.858;151.184;2022-08-01T13:48:03;14.40;99.90
16441;DHT22;8330;-33.858;151.184;2022-08-01T13:50:34;14.40;99.90
16441;DHT22;8330;-33.858;151.184;2022-08-01T13:53:04;14.40;99.90
16441;DHT22;8330;-33.858;151.184;2022-08-01T13:55:35;14.40;99.90
16441;DHT22;8330;-33.858;151.184;2022-08-01T13:58:06;14.30;99.90
16441;DHT22;8330;-33.858;151.184;2022-08-01T14:00:36;14.30;99.90
16441;DHT22;8330;-33.858;151.184;2022-08-01T14:03:09;14.30;99.90
16441;DHT22;8330;-33.858;151.184;2022-08-01T14:05:40;14.30;99.90
16441;DHT22;8330;-33.858;151.184;2022-08-01T14:08:11;14.30;99.90
16441;DHT22;8330;-33.858;151.184;2022-08-01T14:10:42;14.30;99.90
16441;DHT22;8330;-33.858;151.184;2022-08-01T14:13:12;14.30;99.90
16441;DHT22;8330;-33.858;151.184;2022-08-01T14:15:43;14.20;99.90
16441;DHT22;8330;-33.858;151.184;2022-08-01T14:18:15;14.10;99.90
16441;DHT22;8330;-33.858;151.184;2022-08-01T14:20:46;14.10;99.90
16441;DHT22;8330;-33.858;151.184;2022-08-01T14:23:17;14.10;99.90
16441;DHT22;8330;-33.858;151.184;2022-08-01T14:25:50;14.10;99.90
16441;DHT22;8330;-33.858;151.184;2022-08-01T14:28:22;14.00;99.90
16441;DHT22;8330;-33.858;151.184;2022-08-01T14:30:55;13.90;99.90
16441;DHT22;8330;-33.858;151.184;2022-08-01T14:33:28;13.80;99.90
16441;DHT22;8330;-33.858;151.184;2022-08-01T14:35:58;13.80;99.90
16441;DHT22;8330;-33.858;151.184;2022-08-01T14:38:29;13.60;99.90
16441;DHT22;8330;-33.858;151.184;2022-08-01T14:41:00;13.60;99.90
16441;DHT22;8330;-33.858;151.184;2022-08-01T14:43:32;13.50;99.90
16441;DHT22;8330;-33.858;151.184;2022-08-01T14:46:03;13.50;99.90
16441;DHT22;8330;-33.858;151.184;2022-08-01T14:48:37;13.50;99.90
16441;DHT22;8330;-33.858;151.184;2022-08-01T14:51:08;13.50;99.90
16441;DHT22;8330;-33.858;151.184;2022-08-01T14:53:39;13.60;99.90
16441;DHT22;8330;-33.858;151.184;2022-08-01T14:56:10;13.60;99.90
16441;DHT22;8330;-33.858;151.184;2022-08-01T14:58:41;13.60;99.90
16441;DHT22;8330;-33.858;151.184;2022-08-01T15:01:11;13.60;99.90
16441;DHT22;8330;-33.858;151.184;2022-08-01T15:03:44;13.60;99.90
16441;DHT22;8330;-33.858;151.184;2022-08-01T15:06:17;13.60;99.90
16441;DHT22;8330;-33.858;151.184;2022-08-01T15:08:48;13.50;99.90
16441;DHT22;8330;-33.858;151.184;2022-08-01T15:11:19;13.60;99.90
16441;DHT22;8330;-33.858;151.184;2022-08-01T15:13:53;13.50;99.90
16441;DHT22;8330;-33.858;151.184;2022-08-01T15:16:36;13.50;99.90
16441;DHT22;8330;-33.858;151.184;2022-08-01T15:19:09;13.50;99.90
16441;DHT22;8330;-33.858;151.184;2022-08-01T15:21:40;13.50;99.90
16441;DHT22;8330;-33.858;151.184;2022-08-01T15:24:12;13.50;99.90
16441;DHT22;8330;-33.858;151.184;2022-08-01T15:26:43;13.40;99.90
16441;DHT22;8330;-33.858;151.184;2022-08-01T15:29:14;13.40;99.90
16441;DHT22;8330;-33.858;151.184;2022-08-01T15:31:44;13.30;99.90
16441;DHT22;8330;-33.858;151.184;2022-08-01T15:34:17;13.40;99.90
16441;DHT22;8330;-33.858;151.184;2022-08-01T15:36:48;13.40;99.90
16441;DHT22;8330;-33.858;151.184;2022-08-01T15:39:19;13.30;99.90
16441;DHT22;8330;-33.858;151.184;2022-08-01T15:41:49;13.30;99.90
16441;DHT22;8330;-33.858;151.184;2022-08-01T15:44:20;13.30;99.90
16441;DHT22;8330;-33.858;151.184;2022-08-01T15:46:51;13.30;99.90